• Join FlightAware (Why Join?)
  • Login
  • US Flag 
09:45AM EST


 

Airport Tracker/Info


-or-


 

Live Flight TrackerFlight Track Log ✈ SWA471 ✈ 22-Apr-2013 ✈ KBWI - KMCI

Flight Track Log - Related Links

Times and Time Zones

All times are in EDT time to prevent confusion due to time zone crossing. See the SWA471 flight status page for this flight to view local times or setup timezone preferences in your user account.

Time Position Orientation Groundspeed Altitude Reporting Facility
EDT Latitude Longitude Course Direction KTS MPH feet Rate Location/Type
06:09PM 39.1500 -76.6500 252° West 178 205 1,300  Level Potomac TRACON
06:10PM 39.1333 -76.7167 252° West 253 291 3,200 2,160 Climbing Potomac TRACON
06:11PM 39.1667 -76.7833 303° West 258 297 5,700 2,760 Climbing Potomac TRACON
06:12PM 39.2000 -76.8667 297° West 266 306 8,800 2,640 Climbing Potomac TRACON
06:13PM 39.2167 -76.9667 282° West 285 328 11,000 2,100 Climbing Potomac TRACON
06:15PM 39.1400 -77.2161 248° West 301 346 16,200 1,800 Climbing Washington Center
06:16PM 39.1011 -77.3167 244° Southwest 318 366 17,400 1,620 Climbing Washington Center
06:17PM 39.0636 -77.4550 251° West 362 417 19,500 1,860 Climbing Washington Center
06:18PM 39.0328 -77.5664 250° West 374 430 21,100 1,500 Climbing Washington Center
06:19PM 38.9950 -77.7069 251° West 388 447 22,600 1,200 Climbing Washington Center
06:20PM 38.9614 -77.8289 251° West 395 455 23,600 1,200 Climbing Washington Center
06:21PM 38.9189 -77.9822 250° West 406 467 25,000 1,920 Climbing Washington Center
06:22PM 38.8808 -78.1117 249° West 406 467 27,500 2,340 Climbing Washington Center
06:23PM 38.8508 -78.2411 253° West 387 445 29,700 1,680 Climbing Washington Center
06:24PM 38.8500 -78.3719 270° West 376 433 30,900 1,020 Climbing Washington Center
06:25PM 38.8511 -78.5053 271° West 376 433 31,800 900 Climbing Washington Center
06:26PM 38.8497 -78.6411 269° West 376 433 32,700 840 Climbing Washington Center
06:27PM 38.8483 -78.7769 269° West 381 438 33,500 840 Climbing Washington Center
06:28PM 38.8467 -78.9103 269° West 381 438 34,400 720 Climbing Washington Center
06:29PM 38.8450 -79.0433 269° West 381 438 35,000 300 Climbing Washington Center
06:30PM 38.8433 -79.1792 269° West 381 438 35,000  Level Washington Center
06:31PM 38.8411 -79.3203 269° West 386 444 35,000  Level Washington Center
06:32PM 38.8389 -79.4561 269° West 386 444 35,000  Level Washington Center
06:33PM 38.8356 -79.5600 268° West 380 437 35,000  Level Washington Center
06:34PM 38.8319 -79.7250 268° West 392 451 35,000  Level Washington Center
06:35PM 38.8272 -79.8581 267° West 386 444 35,000  Level Washington Center
06:36PM 38.8267 -79.9939 270° West 381 438 35,000  Level Washington Center
06:37PM 38.8219 -80.1161 267° West 381 438 35,000  Level Washington Center
06:38PM 38.8175 -80.2172 267° West 377 434 35,000 240 Level Indianapolis Center
06:39PM 38.8128 -80.3542 268° West 385 443 35,500 300 Climbing Indianapolis Center
06:40PM 38.8081 -80.5197 268° West 387 445 35,700 -480 Climbing Indianapolis Center
06:41PM 38.8039 -80.6600 268° West 393 452 34,600 -840 Descending Indianapolis Center
06:42PM 38.8000 -80.7997 268° West 393 452 34,000 -300 Descending Indianapolis Center
06:43PM 38.7956 -80.9414 268° West 396 456 34,000  Level Indianapolis Center
06:44PM 38.7900 -81.0847 267° West 400 460 34,000  Level Indianapolis Center
06:45PM 38.7861 -81.2256 268° West 401 461 34,000  Level Indianapolis Center
06:46PM 38.7803 -81.3958 268° West 401 461 34,000  Level Indianapolis Center
06:47PM 38.7742 -81.5358 267° West 403 464 34,000 -60 Level Indianapolis Center
06:48PM 38.7689 -81.6711 267° West 397 457 33,900 -540 Descending Indianapolis Center
06:49PM 38.7636 -81.8131 267° West 402 463 32,900 -960 Descending Indianapolis Center
06:50PM 38.7567 -81.9872 267° West 408 470 32,000 -480 Descending Indianapolis Center
06:51PM 38.7508 -82.1317 267° West 406 467 32,000  Level Indianapolis Center
06:52PM 38.7453 -82.2747 267° West 404 465 32,000  Level Indianapolis Center
06:53PM 38.7403 -82.4175 267° West 403 464 32,000  Level Indianapolis Center
06:54PM 38.7336 -82.5586 267° West 398 458 32,000  Level Indianapolis Center
06:55PM 38.7289 -82.7011 268° West 400 460 32,000  Level Indianapolis Center
06:56PM 38.7208 -82.8703 267° West 397 457 32,000  Level Indianapolis Center
06:58PM 38.7142 -83.0117 267° West 397 457 32,000  Level Indianapolis Center
06:59PM 38.7086 -83.1531 267° West 398 458 32,000  Level Indianapolis Center
07:00PM 38.7008 -83.3025 266° West 396 456 32,000  Level Indianapolis Center
07:01PM 38.6947 -83.4453 267° West 396 456 32,000  Level Indianapolis Center
07:02PM 38.6875 -83.5878 266° West 398 458 32,000  Level Indianapolis Center
07:03PM 38.6792 -83.7294 266° West 396 456 32,000  Level Indianapolis Center
07:04PM 38.6728 -83.8717 267° West 396 456 32,000  Level Indianapolis Center
07:05PM 38.6656 -84.0142 266° West 397 457 32,000  Level Indianapolis Center
07:06PM 38.6581 -84.1561 266° West 397 457 32,000  Level Indianapolis Center
07:07PM 38.6506 -84.2983 266° West 397 457 32,000  Level Indianapolis Center
07:08PM 38.6583 -84.4606 274° West 387 445 32,000  Level Indianapolis Center
07:09PM 38.6664 -84.5986 274° West 390 449 32,000  Level Indianapolis Center
07:10PM 38.6747 -84.7381 274° West 391 450 32,000  Level Indianapolis Center
07:11PM 38.6819 -84.8872 274° West 392 451 32,000  Level Indianapolis Center
07:12PM 38.6897 -85.0253 274° West 390 449 32,000  Level Indianapolis Center
07:13PM 38.6983 -85.1639 275° West 390 449 32,000  Level Indianapolis Center
07:14PM 38.7047 -85.3022 273° West 389 448 32,000  Level Indianapolis Center
07:15PM 38.7119 -85.4408 274° West 391 450 32,000  Level Indianapolis Center
07:16PM 38.7181 -85.5806 273° West 393 452 32,000  Level Indianapolis Center
07:17PM 38.7258 -85.7222 274° West 398 458 32,000  Level Indianapolis Center
07:18PM 38.7333 -85.8925 273° West 399 459 32,000  Level Indianapolis Center
07:19PM 38.7422 -86.0364 275° West 404 465 32,000  Level Indianapolis Center
07:20PM 38.7469 -86.1786 272° West 401 461 32,000  Level Indianapolis Center
07:21PM 38.7539 -86.3219 274° West 403 464 32,000  Level Indianapolis Center
07:22PM 38.7600 -86.4639 273° West 402 463 32,000  Level Indianapolis Center
07:23PM 38.7658 -86.6050 273° West 400 460 32,000  Level Indianapolis Center
07:24PM 38.7711 -86.7450 273° West 395 455 32,000  Level Indianapolis Center
07:25PM 38.7783 -86.9108 273° West 390 449 32,000  Level Indianapolis Center
07:26PM 38.7828 -87.0481 272° West 388 447 32,000  Level Indianapolis Center
07:27PM 38.7886 -87.1861 273° West 389 448 32,000  Level Indianapolis Center
07:28PM 38.7925 -87.3228 272° West 387 445 32,000  Level Indianapolis Center
07:29PM 38.7981 -87.4583 273° West 383 441 32,000  Level Indianapolis Center
07:30PM 38.8022 -87.5964 272° West 388 447 32,000  Level Indianapolis Center
07:32PM 38.8078 -87.7622 273° West 389 448 32,000  Level Indianapolis Center
07:33PM 38.8111 -87.8989 272° West 386 444 32,000  Level Indianapolis Center
07:33PM 38.8147 -88.0106 272° West 386 444 32,000  Level Kansas City Center
07:34PM 38.8183 -88.1472 272° West 385 443 32,000  Level Kansas City Center
07:36PM 38.8222 -88.2847 272° West 385 443 32,000  Level Kansas City Center
07:37PM 38.8250 -88.4236 272° West 387 445 32,000  Level Kansas City Center
07:38PM 38.8297 -88.5903 272° West 389 448 32,000  Level Kansas City Center
07:39PM 38.8328 -88.7117 272° West 389 448 32,000  Level Kansas City Center
07:40PM 38.8350 -88.8506 271° West 390 449 32,000  Level Kansas City Center
07:41PM 38.8397 -89.0172 272° West 399 459 32,000  Level Kansas City Center
07:42PM 38.8419 -89.1581 271° West 397 457 32,000  Level Kansas City Center
07:43PM 38.8661 -89.3036 282° West 396 456 32,000  Level Kansas City Center
07:44PM 38.9000 -89.4353 288° West 390 449 32,000 -420 Level Kansas City Center
07:45PM 38.9378 -89.5775 289° West 392 451 31,200 -900 Descending Kansas City Center
07:46PM 38.9711 -89.7064 288° West 384 442 30,200 -840 Descending Kansas City Center
07:47PM 39.0044 -89.8367 288° West 385 443 29,500 -900 Descending Kansas City Center
07:48PM 39.0414 -89.9781 289° West 388 447 28,400 -780 Descending Kansas City Center
07:49PM 39.0747 -90.1078 288° West 391 450 28,000 -240 Descending Kansas City Center
07:50PM 39.1097 -90.2439 288° West 400 460 28,000 -60 Level Kansas City Center
07:51PM 39.1444 -90.3806 288° West 405 466 27,900 -600 Descending Kansas City Center
07:52PM 39.1783 -90.5153 288° West 402 463 26,800 -960 Descending Kansas City Center
07:53PM 39.2117 -90.6489 288° West 397 457 26,000 -420 Descending Kansas City Center
07:54PM 39.2450 -90.7836 288° West 397 457 26,000  Level Kansas City Center
07:55PM 39.2853 -90.9428 288° West 393 452 26,000  Level Kansas City Center
07:56PM 39.3172 -91.0761 287° West 392 451 26,000  Level Kansas City Center
07:57PM 39.3503 -91.2086 288° West 389 448 26,000  Level Kansas City Center
07:58PM 39.3831 -91.3419 287° West 390 449 26,000  Level Kansas City Center
07:59PM 39.3941 -91.3920 287° West  Level FlightAware Approximate
07:59PM 39.4161 -91.4744 288° West 390 449 26,000  Level Kansas City Center
08:00PM 39.4469 -91.6081 287° West 389 448 26,000  Level Kansas City Center
08:01PM 39.4822 -91.7522 288° West 388 447 26,000  Level Kansas City Center
08:02PM 39.5142 -91.8839 287° West 387 445 26,000  Level Kansas City Center
08:03PM 39.5453 -92.0164 287° West 386 444 26,000  Level Kansas City Center
08:04PM 39.5769 -92.1511 287° West 390 449 26,000  Level Kansas City Center
08:05PM 39.6150 -92.3131 287° West 393 452 26,000  Level Kansas City Center
08:06PM 39.6464 -92.4483 287° West 394 453 26,000  Level Kansas City Center
08:07PM 39.6531 -92.5908 274° West 394 453 26,000  Level Kansas City Center
08:08PM 39.6511 -92.7300 269° West 390 449 26,000  Level Kansas City Center
08:09PM 39.6494 -92.8706 269° West 392 451 26,000  Level Kansas City Center
08:10PM 39.6472 -93.0125 269° West 394 453 26,000 -600 Level Kansas City Center
08:11PM 39.6464 -93.1550 270° West 396 456 24,800 -1,740 Descending Kansas City Center
08:12PM 39.6428 -93.2856 268° West 375 432 22,500 -2,400 Descending Kansas City Center
08:13PM 39.6397 -93.4383 269° West 361 415 19,900 -2,400 Descending Kansas City Center
08:15PM 39.6378 -93.5608 269° West 349 402 17,700 -2,160 Descending Kansas City Center
08:16PM 39.6358 -93.6753 269° West 324 373 15,600 -1,680 Descending Kansas City Center
08:17PM 39.6097 -93.7847 253° West 284 327 14,300 -1,080 Descending Kansas City Center
08:18PM 39.5861 -93.8789 252° West 284 327 13,400 -900 Descending Kansas City Center
08:19PM 39.5586 -93.9831 251° West 273 314 12,500 -1,020 Descending Kansas City Center
08:20PM 39.5353 -94.0697 251° West 267 307 11,300 -1,320 Descending Kansas City Center
08:21PM 39.5181 -94.1539 255° West 254 292 9,900 -1,860 Descending Kansas City Center
08:22PM 39.4978 -94.2503 255° West 250 288 7,600 -1,920 Descending Kansas City Center
08:23PM 39.4786 -94.3378 254° West 262 302 6,000 -780 Descending Kansas City Center
08:24PM 39.4578 -94.4372 255° West 257 296 6,000 -540 Level Kansas City Center
08:25PM 39.4386 -94.5228 254° West 258 297 5,000 -1,080 Descending Kansas City Center
08:26PM 39.4208 -94.6058 255° West 251 289 3,800 -780 Descending Kansas City Center
08:27PM 39.3950 -94.6761 245° Southwest 190 219 3,400 -960 Descending Kansas City Center
08:28PM 39.3567 -94.6869 192° South 147 169 1,900 -1,140 Descending Kansas City Center
08:29PM 39.3125 -94.7000 193° South 147 169 1,100 -840 Descending Kansas City Center
08:31PM 39.2976 -94.7139 270° West  Level Estimated
08:38PM 39.2976 -94.7139 270° West  Level Estimated